sensor_id;sensor_type;location;lat;lon;timestamp;P1;durP1;ratioP1;P2;durP2;ratioP2
15913;SDS011;8055;51.930;8.840;2022-09-09T00:02:08;8.35;;;1.23;;
15913;SDS011;8055;51.930;8.840;2022-09-09T00:04:37;5.68;;;1.23;;
15913;SDS011;8055;51.930;8.840;2022-09-09T00:07:25;4.50;;;1.20;;
15913;SDS011;8055;51.930;8.840;2022-09-09T00:21:05;2.47;;;1.00;;
15913;SDS011;8055;51.930;8.840;2022-09-09T00:28:47;6.30;;;1.63;;
15913;SDS011;8055;51.930;8.840;2022-09-09T00:31:16;2.92;;;1.10;;
15913;SDS011;8055;51.930;8.840;2022-09-09T00:33:48;4.80;;;1.20;;
15913;SDS011;8055;51.930;8.840;2022-09-09T00:36:15;4.03;;;1.25;;
15913;SDS011;8055;51.930;8.840;2022-09-09T00:38:55;3.58;;;1.05;;
15913;SDS011;8055;51.930;8.840;2022-09-09T00:44:25;5.70;;;1.30;;
15913;SDS011;8055;51.930;8.840;2022-09-09T00:49:38;3.17;;;0.98;;
15913;SDS011;8055;51.930;8.840;2022-09-09T00:57:39;3.33;;;1.30;;
15913;SDS011;8055;51.930;8.840;2022-09-09T01:00:22;3.38;;;1.33;;
15913;SDS011;8055;51.930;8.840;2022-09-09T01:11:22;3.47;;;1.10;;
15913;SDS011;8055;51.930;8.840;2022-09-09T01:13:56;3.90;;;0.90;;
15913;SDS011;8055;51.930;8.840;2022-09-09T01:16:29;11.63;;;1.80;;
15913;SDS011;8055;51.930;8.840;2022-09-09T01:18:56;4.22;;;1.20;;
15913;SDS011;8055;51.930;8.840;2022-09-09T01:21:40;3.92;;;1.17;;
15913;SDS011;8055;51.930;8.840;2022-09-09T01:24:49;4.18;;;1.27;;
15913;SDS011;8055;51.930;8.840;2022-09-09T01:27:36;3.47;;;1.20;;
15913;SDS011;8055;51.930;8.840;2022-09-09T01:30:07;5.18;;;1.17;;
15913;SDS011;8055;51.930;8.840;2022-09-09T01:32:41;3.63;;;1.25;;
15913;SDS011;8055;51.930;8.840;2022-09-09T01:35:10;4.10;;;1.20;;
15913;SDS011;8055;51.930;8.840;2022-09-09T01:37:57;6.60;;;1.25;;
15913;SDS011;8055;51.930;8.840;2022-09-09T01:40:22;7.03;;;1.48;;
15913;SDS011;8055;51.930;8.840;2022-09-09T01:42:49;3.42;;;1.17;;
15913;SDS011;8055;51.930;8.840;2022-09-09T01:45:14;3.40;;;1.40;;
15913;SDS011;8055;51.930;8.840;2022-09-09T01:47:40;5.70;;;1.20;;
15913;SDS011;8055;51.930;8.840;2022-09-09T01:50:06;4.70;;;1.25;;
15913;SDS011;8055;51.930;8.840;2022-09-09T01:52:36;5.03;;;1.33;;
15913;SDS011;8055;51.930;8.840;2022-09-09T01:55:02;3.67;;;1.20;;
15913;SDS011;8055;51.930;8.840;2022-09-09T01:57:30;7.05;;;1.67;;
15913;SDS011;8055;51.930;8.840;2022-09-09T02:02:36;3.08;;;1.38;;
15913;SDS011;8055;51.930;8.840;2022-09-09T02:05:12;3.75;;;1.05;;
15913;SDS011;8055;51.930;8.840;2022-09-09T02:10:44;4.03;;;1.45;;
15913;SDS011;8055;51.930;8.840;2022-09-09T02:13:16;6.68;;;1.50;;
15913;SDS011;8055;51.930;8.840;2022-09-09T02:15:45;3.80;;;1.17;;
15913;SDS011;8055;51.930;8.840;2022-09-09T02:18:19;5.18;;;1.38;;
15913;SDS011;8055;51.930;8.840;2022-09-09T02:20:51;5.50;;;1.33;;
15913;SDS011;8055;51.930;8.840;2022-09-09T02:23:18;3.97;;;1.30;;
15913;SDS011;8055;51.930;8.840;2022-09-09T02:25:44;4.05;;;1.38;;
15913;SDS011;8055;51.930;8.840;2022-09-09T02:28:11;3.90;;;1.10;;
15913;SDS011;8055;51.930;8.840;2022-09-09T02:30:40;1.95;;;1.10;;
15913;SDS011;8055;51.930;8.840;2022-09-09T02:33:07;3.40;;;1.05;;
15913;SDS011;8055;51.930;8.840;2022-09-09T02:35:37;6.15;;;1.58;;
15913;SDS011;8055;51.930;8.840;2022-09-09T02:38:06;4.63;;;1.48;;
15913;SDS011;8055;51.930;8.840;2022-09-09T02:40:35;4.30;;;1.10;;
15913;SDS011;8055;51.930;8.840;2022-09-09T02:43:00;4.28;;;1.30;;
15913;SDS011;8055;51.930;8.840;2022-09-09T02:45:31;7.50;;;1.60;;
15913;SDS011;8055;51.930;8.840;2022-09-09T02:51:32;3.90;;;1.45;;
15913;SDS011;8055;51.930;8.840;2022-09-09T02:54:16;4.68;;;1.38;;
15913;SDS011;8055;51.930;8.840;2022-09-09T02:57:05;4.60;;;1.50;;
15913;SDS011;8055;51.930;8.840;2022-09-09T02:59:48;3.35;;;1.35;;
15913;SDS011;8055;51.930;8.840;2022-09-09T03:02:15;5.57;;;1.80;;
15913;SDS011;8055;51.930;8.840;2022-09-09T03:04:40;3.40;;;1.42;;
15913;SDS011;8055;51.930;8.840;2022-09-09T03:07:09;6.07;;;1.17;;
15913;SDS011;8055;51.930;8.840;2022-09-09T03:09:35;3.35;;;1.50;;
15913;SDS011;8055;51.930;8.840;2022-09-09T03:12:00;6.93;;;1.48;;
15913;SDS011;8055;51.930;8.840;2022-09-09T03:14:26;5.38;;;1.65;;
15913;SDS011;8055;51.930;8.840;2022-09-09T03:16:51;3.65;;;1.40;;
15913;SDS011;8055;51.930;8.840;2022-09-09T03:19:18;3.92;;;1.38;;
15913;SDS011;8055;51.930;8.840;2022-09-09T03:21:44;3.22;;;1.15;;
15913;SDS011;8055;51.930;8.840;2022-09-09T03:24:10;4.03;;;1.23;;
15913;SDS011;8055;51.930;8.840;2022-09-09T03:26:36;3.08;;;1.15;;
15913;SDS011;8055;51.930;8.840;2022-09-09T03:29:02;7.25;;;1.65;;
15913;SDS011;8055;51.930;8.840;2022-09-09T03:31:31;3.65;;;1.35;;
15913;SDS011;8055;51.930;8.840;2022-09-09T03:33:57;4.22;;;0.85;;
15913;SDS011;8055;51.930;8.840;2022-09-09T03:36:23;4.13;;;1.30;;
15913;SDS011;8055;51.930;8.840;2022-09-09T03:38:49;4.03;;;1.58;;
15913;SDS011;8055;51.930;8.840;2022-09-09T03:41:15;5.75;;;1.60;;
15913;SDS011;8055;51.930;8.840;2022-09-09T03:43:40;3.15;;;0.93;;
15913;SDS011;8055;51.930;8.840;2022-09-09T03:46:06;2.97;;;0.93;;
15913;SDS011;8055;51.930;8.840;2022-09-09T03:48:32;3.03;;;1.02;;
15913;SDS011;8055;51.930;8.840;2022-09-09T03:50:57;5.55;;;1.15;;
15913;SDS011;8055;51.930;8.840;2022-09-09T03:53:25;4.38;;;1.08;;
15913;SDS011;8055;51.930;8.840;2022-09-09T03:55:51;3.97;;;1.20;;
15913;SDS011;8055;51.930;8.840;2022-09-09T03:58:19;3.08;;;0.98;;
15913;SDS011;8055;51.930;8.840;2022-09-09T04:00:56;2.40;;;1.02;;
15913;SDS011;8055;51.930;8.840;2022-09-09T04:03:23;3.20;;;1.15;;
15913;SDS011;8055;51.930;8.840;2022-09-09T04:05:53;4.65;;;1.20;;
15913;SDS011;8055;51.930;8.840;2022-09-09T04:08:19;2.55;;;1.05;;
15913;SDS011;8055;51.930;8.840;2022-09-09T04:10:46;3.85;;;1.00;;
15913;SDS011;8055;51.930;8.840;2022-09-09T04:13:12;6.45;;;1.40;;
15913;SDS011;8055;51.930;8.840;2022-09-09T04:15:39;3.83;;;1.27;;
15913;SDS011;8055;51.930;8.840;2022-09-09T04:18:05;3.97;;;1.10;;
15913;SDS011;8055;51.930;8.840;2022-09-09T04:20:31;1.77;;;1.20;;
15913;SDS011;8055;51.930;8.840;2022-09-09T04:22:57;2.70;;;1.10;;
15913;SDS011;8055;51.930;8.840;2022-09-09T04:25:23;3.45;;;1.17;;
15913;SDS011;8055;51.930;8.840;2022-09-09T04:27:52;2.60;;;1.15;;
15913;SDS011;8055;51.930;8.840;2022-09-09T04:30:21;4.72;;;1.10;;
15913;SDS011;8055;51.930;8.840;2022-09-09T04:32:47;1.48;;;0.85;;
15913;SDS011;8055;51.930;8.840;2022-09-09T04:35:12;2.78;;;1.05;;
15913;SDS011;8055;51.930;8.840;2022-09-09T04:37:38;3.97;;;1.23;;
15913;SDS011;8055;51.930;8.840;2022-09-09T04:40:04;3.90;;;1.13;;
15913;SDS011;8055;51.930;8.840;2022-09-09T04:42:30;8.35;;;1.33;;
15913;SDS011;8055;51.930;8.840;2022-09-09T04:44:55;5.15;;;1.40;;
15913;SDS011;8055;51.930;8.840;2022-09-09T04:47:20;4.63;;;1.40;;
15913;SDS011;8055;51.930;8.840;2022-09-09T04:49:46;4.93;;;1.30;;
15913;SDS011;8055;51.930;8.840;2022-09-09T04:52:12;6.32;;;1.45;;
15913;SDS011;8055;51.930;8.840;2022-09-09T04:54:37;3.78;;;1.30;;
15913;SDS011;8055;51.930;8.840;2022-09-09T04:57:03;4.90;;;1.50;;
15913;SDS011;8055;51.930;8.840;2022-09-09T04:59:29;3.85;;;1.85;;
15913;SDS011;8055;51.930;8.840;2022-09-09T05:01:55;4.43;;;1.60;;
15913;SDS011;8055;51.930;8.840;2022-09-09T05:04:21;5.32;;;1.48;;
15913;SDS011;8055;51.930;8.840;2022-09-09T05:06:46;5.28;;;1.67;;
15913;SDS011;8055;51.930;8.840;2022-09-09T05:09:11;3.03;;;1.70;;
15913;SDS011;8055;51.930;8.840;2022-09-09T05:11:37;4.57;;;1.80;;
15913;SDS011;8055;51.930;8.840;2022-09-09T05:14:03;5.10;;;2.05;;
15913;SDS011;8055;51.930;8.840;2022-09-09T05:16:28;3.28;;;1.50;;
15913;SDS011;8055;51.930;8.840;2022-09-09T05:18:55;5.85;;;1.95;;
15913;SDS011;8055;51.930;8.840;2022-09-09T05:21:21;4.88;;;1.50;;
15913;SDS011;8055;51.930;8.840;2022-09-09T05:23:48;5.00;;;1.52;;
15913;SDS011;8055;51.930;8.840;2022-09-09T05:26:15;4.63;;;1.83;;
15913;SDS011;8055;51.930;8.840;2022-09-09T05:28:43;2.70;;;1.55;;
15913;SDS011;8055;51.930;8.840;2022-09-09T05:31:09;5.70;;;2.08;;
15913;SDS011;8055;51.930;8.840;2022-09-09T05:33:39;3.35;;;1.52;;
15913;SDS011;8055;51.930;8.840;2022-09-09T05:36:07;5.63;;;1.70;;
15913;SDS011;8055;51.930;8.840;2022-09-09T05:38:34;2.75;;;1.30;;
15913;SDS011;8055;51.930;8.840;2022-09-09T05:41:00;5.07;;;1.90;;
15913;SDS011;8055;51.930;8.840;2022-09-09T05:43:27;3.90;;;1.60;;
15913;SDS011;8055;51.930;8.840;2022-09-09T05:46:04;2.40;;;1.42;;
15913;SDS011;8055;51.930;8.840;2022-09-09T05:48:38;4.60;;;1.55;;
15913;SDS011;8055;51.930;8.840;2022-09-09T05:51:05;5.30;;;1.20;;
15913;SDS011;8055;51.930;8.840;2022-09-09T05:53:33;4.07;;;1.13;;
15913;SDS011;8055;51.930;8.840;2022-09-09T05:56:21;3.65;;;1.50;;
15913;SDS011;8055;51.930;8.840;2022-09-09T05:58:47;3.95;;;1.50;;
15913;SDS011;8055;51.930;8.840;2022-09-09T06:01:13;5.47;;;1.55;;
15913;SDS011;8055;51.930;8.840;2022-09-09T06:03:40;5.35;;;1.30;;
15913;SDS011;8055;51.930;8.840;2022-09-09T06:06:08;6.35;;;1.40;;
15913;SDS011;8055;51.930;8.840;2022-09-09T06:08:39;4.22;;;1.23;;
15913;SDS011;8055;51.930;8.840;2022-09-09T06:11:07;5.82;;;1.45;;
15913;SDS011;8055;51.930;8.840;2022-09-09T06:13:34;3.13;;;1.35;;
15913;SDS011;8055;51.930;8.840;2022-09-09T06:16:02;9.43;;;1.52;;
15913;SDS011;8055;51.930;8.840;2022-09-09T06:18:27;5.28;;;1.40;;
15913;SDS011;8055;51.930;8.840;2022-09-09T06:21:01;5.38;;;1.45;;
15913;SDS011;8055;51.930;8.840;2022-09-09T06:23:29;6.13;;;1.33;;
15913;SDS011;8055;51.930;8.840;2022-09-09T06:26:03;4.03;;;1.40;;
15913;SDS011;8055;51.930;8.840;2022-09-09T06:28:34;6.88;;;1.33;;
15913;SDS011;8055;51.930;8.840;2022-09-09T06:31:02;5.30;;;1.13;;
15913;SDS011;8055;51.930;8.840;2022-09-09T06:33:36;5.75;;;1.73;;
15913;SDS011;8055;51.930;8.840;2022-09-09T06:36:06;5.60;;;1.48;;
15913;SDS011;8055;51.930;8.840;2022-09-09T06:38:32;4.93;;;1.40;;
15913;SDS011;8055;51.930;8.840;2022-09-09T06:40:58;5.07;;;1.58;;
15913;SDS011;8055;51.930;8.840;2022-09-09T06:43:24;5.43;;;1.40;;
15913;SDS011;8055;51.930;8.840;2022-09-09T06:48:46;6.30;;;1.40;;
15913;SDS011;8055;51.930;8.840;2022-09-09T06:51:16;6.63;;;1.67;;
15913;SDS011;8055;51.930;8.840;2022-09-09T06:53:52;3.70;;;1.60;;
15913;SDS011;8055;51.930;8.840;2022-09-09T06:56:23;5.63;;;1.90;;
15913;SDS011;8055;51.930;8.840;2022-09-09T06:58:54;6.13;;;1.67;;
15913;SDS011;8055;51.930;8.840;2022-09-09T07:01:21;7.68;;;1.50;;
15913;SDS011;8055;51.930;8.840;2022-09-09T07:03:52;4.75;;;1.90;;
15913;SDS011;8055;51.930;8.840;2022-09-09T07:06:29;3.58;;;1.52;;
15913;SDS011;8055;51.930;8.840;2022-09-09T07:09:00;5.70;;;1.30;;
15913;SDS011;8055;51.930;8.840;2022-09-09T07:11:30;4.10;;;1.63;;
15913;SDS011;8055;51.930;8.840;2022-09-09T07:13:58;28.88;;;3.10;;
15913;SDS011;8055;51.930;8.840;2022-09-09T07:16:24;16.33;;;3.00;;
15913;SDS011;8055;51.930;8.840;2022-09-09T07:18:52;6.32;;;1.80;;
15913;SDS011;8055;51.930;8.840;2022-09-09T07:21:22;6.40;;;1.60;;
15913;SDS011;8055;51.930;8.840;2022-09-09T07:23:49;5.40;;;1.67;;
15913;SDS011;8055;51.930;8.840;2022-09-09T07:26:16;8.50;;;2.42;;
15913;SDS011;8055;51.930;8.840;2022-09-09T07:28:44;7.80;;;1.60;;
15913;SDS011;8055;51.930;8.840;2022-09-09T07:31:17;8.60;;;1.85;;
15913;SDS011;8055;51.930;8.840;2022-09-09T07:33:45;6.80;;;1.45;;
15913;SDS011;8055;51.930;8.840;2022-09-09T07:36:14;8.15;;;1.80;;
15913;SDS011;8055;51.930;8.840;2022-09-09T07:38:43;6.07;;;1.70;;
15913;SDS011;8055;51.930;8.840;2022-09-09T07:41:12;4.22;;;1.50;;
15913;SDS011;8055;51.930;8.840;2022-09-09T07:43:43;6.75;;;1.77;;
15913;SDS011;8055;51.930;8.840;2022-09-09T07:46:10;4.95;;;1.40;;
15913;SDS011;8055;51.930;8.840;2022-09-09T07:48:37;6.45;;;1.48;;
15913;SDS011;8055;51.930;8.840;2022-09-09T07:51:07;4.63;;;1.30;;
15913;SDS011;8055;51.930;8.840;2022-09-09T07:53:37;6.90;;;2.17;;
15913;SDS011;8055;51.930;8.840;2022-09-09T07:56:04;4.70;;;1.55;;
15913;SDS011;8055;51.930;8.840;2022-09-09T07:58:32;4.60;;;1.33;;
15913;SDS011;8055;51.930;8.840;2022-09-09T08:00:58;6.38;;;1.45;;
15913;SDS011;8055;51.930;8.840;2022-09-09T08:03:23;5.60;;;1.85;;
15913;SDS011;8055;51.930;8.840;2022-09-09T08:05:49;3.72;;;1.20;;
15913;SDS011;8055;51.930;8.840;2022-09-09T08:08:14;7.18;;;1.50;;
15913;SDS011;8055;51.930;8.840;2022-09-09T08:10:41;2.80;;;1.02;;
15913;SDS011;8055;51.930;8.840;2022-09-09T08:13:06;4.75;;;1.45;;
15913;SDS011;8055;51.930;8.840;2022-09-09T08:15:33;5.47;;;1.42;;
15913;SDS011;8055;51.930;8.840;2022-09-09T08:17:59;7.18;;;1.60;;
15913;SDS011;8055;51.930;8.840;2022-09-09T08:20:25;6.95;;;1.70;;
15913;SDS011;8055;51.930;8.840;2022-09-09T08:22:50;3.30;;;1.33;;
15913;SDS011;8055;51.930;8.840;2022-09-09T08:25:15;4.85;;;1.40;;
15913;SDS011;8055;51.930;8.840;2022-09-09T08:27:41;6.47;;;1.52;;
15913;SDS011;8055;51.930;8.840;2022-09-09T08:30:06;6.45;;;1.25;;
15913;SDS011;8055;51.930;8.840;2022-09-09T08:32:32;3.42;;;1.27;;
15913;SDS011;8055;51.930;8.840;2022-09-09T08:34:58;7.13;;;1.70;;
15913;SDS011;8055;51.930;8.840;2022-09-09T08:37:23;7.60;;;1.42;;
15913;SDS011;8055;51.930;8.840;2022-09-09T08:39:48;4.97;;;1.60;;
15913;SDS011;8055;51.930;8.840;2022-09-09T08:55:47;5.72;;;1.63;;
15913;SDS011;8055;51.930;8.840;2022-09-09T08:58:17;7.60;;;1.55;;
15913;SDS011;8055;51.930;8.840;2022-09-09T09:03:47;4.88;;;1.42;;
15913;SDS011;8055;51.930;8.840;2022-09-09T09:11:56;3.92;;;1.20;;
15913;SDS011;8055;51.930;8.840;2022-09-09T09:14:27;5.07;;;1.10;;
15913;SDS011;8055;51.930;8.840;2022-09-09T09:19:35;4.35;;;1.33;;
15913;SDS011;8055;51.930;8.840;2022-09-09T09:22:26;4.65;;;1.55;;
15913;SDS011;8055;51.930;8.840;2022-09-09T09:27:39;3.65;;;1.05;;
15913;SDS011;8055;51.930;8.840;2022-09-09T09:32:40;6.20;;;1.25;;
15913;SDS011;8055;51.930;8.840;2022-09-09T09:35:20;3.40;;;1.10;;
15913;SDS011;8055;51.930;8.840;2022-09-09T09:37:45;5.95;;;1.20;;
15913;SDS011;8055;51.930;8.840;2022-09-09T09:40:15;1.92;;;0.70;;
15913;SDS011;8055;51.930;8.840;2022-09-09T09:42:52;2.80;;;1.00;;
15913;SDS011;8055;51.930;8.840;2022-09-09T09:45:32;4.82;;;1.38;;
15913;SDS011;8055;51.930;8.840;2022-09-09T09:48:12;3.42;;;0.85;;
15913;SDS011;8055;51.930;8.840;2022-09-09T09:53:25;4.00;;;0.88;;
15913;SDS011;8055;51.930;8.840;2022-09-09T09:58:32;3.88;;;1.23;;
15913;SDS011;8055;51.930;8.840;2022-09-09T10:01:02;6.65;;;1.60;;
15913;SDS011;8055;51.930;8.840;2022-09-09T10:03:31;4.40;;;1.30;;
15913;SDS011;8055;51.930;8.840;2022-09-09T10:06:02;6.13;;;1.27;;
15913;SDS011;8055;51.930;8.840;2022-09-09T10:08:28;6.65;;;1.70;;
15913;SDS011;8055;51.930;8.840;2022-09-09T10:13:40;2.07;;;0.90;;
15913;SDS011;8055;51.930;8.840;2022-09-09T10:19:08;4.05;;;1.00;;
15913;SDS011;8055;51.930;8.840;2022-09-09T10:35:14;6.82;;;1.13;;
15913;SDS011;8055;51.930;8.840;2022-09-09T10:43:20;3.10;;;0.90;;
15913;SDS011;8055;51.930;8.840;2022-09-09T10:46:23;5.03;;;1.20;;
15913;SDS011;8055;51.930;8.840;2022-09-09T10:55:24;3.90;;;1.20;;
15913;SDS011;8055;51.930;8.840;2022-09-09T10:57:50;3.92;;;1.00;;
15913;SDS011;8055;51.930;8.840;2022-09-09T11:00:22;5.20;;;1.40;;
15913;SDS011;8055;51.930;8.840;2022-09-09T11:03:20;2.77;;;1.03;;
15913;SDS011;8055;51.930;8.840;2022-09-09T11:06:06;3.78;;;1.08;;
15913;SDS011;8055;51.930;8.840;2022-09-09T11:08:38;5.53;;;1.20;;
15913;SDS011;8055;51.930;8.840;2022-09-09T11:25:05;5.22;;;1.70;;
15913;SDS011;8055;51.930;8.840;2022-09-09T11:36:50;5.13;;;1.30;;
15913;SDS011;8055;51.930;8.840;2022-09-09T11:41:43;4.78;;;1.30;;
15913;SDS011;8055;51.930;8.840;2022-09-09T11:44:12;3.70;;;1.10;;
15913;SDS011;8055;51.930;8.840;2022-09-09T11:46:43;5.80;;;1.40;;
15913;SDS011;8055;51.930;8.840;2022-09-09T11:49:25;4.25;;;1.10;;
15913;SDS011;8055;51.930;8.840;2022-09-09T11:51:53;4.40;;;1.30;;
15913;SDS011;8055;51.930;8.840;2022-09-09T11:54:29;3.13;;;1.02;;
15913;SDS011;8055;51.930;8.840;2022-09-09T11:56:57;6.07;;;1.52;;
15913;SDS011;8055;51.930;8.840;2022-09-09T11:59:24;6.95;;;1.10;;
15913;SDS011;8055;51.930;8.840;2022-09-09T12:01:55;4.53;;;1.13;;
15913;SDS011;8055;51.930;8.840;2022-09-09T12:06:53;6.50;;;1.20;;
15913;SDS011;8055;51.930;8.840;2022-09-09T12:09:26;4.15;;;1.00;;
15913;SDS011;8055;51.930;8.840;2022-09-09T12:11:53;4.97;;;1.27;;
15913;SDS011;8055;51.930;8.840;2022-09-09T12:14:58;4.15;;;1.05;;
15913;SDS011;8055;51.930;8.840;2022-09-09T12:17:37;3.78;;;1.10;;
15913;SDS011;8055;51.930;8.840;2022-09-09T12:27:47;3.33;;;1.00;;
15913;SDS011;8055;51.930;8.840;2022-09-09T12:30:16;5.03;;;1.17;;
15913;SDS011;8055;51.930;8.840;2022-09-09T12:32:42;3.88;;;0.95;;
15913;SDS011;8055;51.930;8.840;2022-09-09T12:37:53;4.97;;;1.20;;
15913;SDS011;8055;51.930;8.840;2022-09-09T12:40:28;3.08;;;0.93;;
15913;SDS011;8055;51.930;8.840;2022-09-09T12:42:57;3.20;;;1.00;;
15913;SDS011;8055;51.930;8.840;2022-09-09T12:45:30;3.20;;;1.00;;
15913;SDS011;8055;51.930;8.840;2022-09-09T12:50:33;3.30;;;0.80;;
15913;SDS011;8055;51.930;8.840;2022-09-09T12:53:06;5.40;;;0.85;;
15913;SDS011;8055;51.930;8.840;2022-09-09T12:55:35;7.18;;;1.10;;
15913;SDS011;8055;51.930;8.840;2022-09-09T12:58:03;3.03;;;0.88;;
15913;SDS011;8055;51.930;8.840;2022-09-09T13:00:31;4.72;;;1.05;;
15913;SDS011;8055;51.930;8.840;2022-09-09T13:02:58;3.22;;;1.05;;
15913;SDS011;8055;51.930;8.840;2022-09-09T13:05:27;3.22;;;0.68;;
15913;SDS011;8055;51.930;8.840;2022-09-09T13:08:06;5.68;;;1.20;;
15913;SDS011;8055;51.930;8.840;2022-09-09T13:13:15;3.58;;;0.80;;
15913;SDS011;8055;51.930;8.840;2022-09-09T13:15:48;2.30;;;0.60;;
15913;SDS011;8055;51.930;8.840;2022-09-09T13:18:20;4.25;;;1.02;;
15913;SDS011;8055;51.930;8.840;2022-09-09T13:20:48;3.47;;;1.02;;
15913;SDS011;8055;51.930;8.840;2022-09-09T13:23:15;3.40;;;0.93;;
15913;SDS011;8055;51.930;8.840;2022-09-09T13:25:54;4.10;;;1.20;;
15913;SDS011;8055;51.930;8.840;2022-09-09T13:28:23;4.18;;;1.10;;
15913;SDS011;8055;51.930;8.840;2022-09-09T13:30:57;2.40;;;0.93;;
15913;SDS011;8055;51.930;8.840;2022-09-09T13:33:35;2.38;;;0.82;;
15913;SDS011;8055;51.930;8.840;2022-09-09T13:36:06;3.33;;;1.00;;
15913;SDS011;8055;51.930;8.840;2022-09-09T13:38:36;1.90;;;0.80;;
15913;SDS011;8055;51.930;8.840;2022-09-09T13:41:04;4.28;;;1.20;;
15913;SDS011;8055;51.930;8.840;2022-09-09T13:43:38;4.68;;;1.10;;
15913;SDS011;8055;51.930;8.840;2022-09-09T13:46:30;3.95;;;1.00;;
15913;SDS011;8055;51.930;8.840;2022-09-09T13:48:59;4.57;;;0.93;;
15913;SDS011;8055;51.930;8.840;2022-09-09T13:51:38;4.38;;;0.82;;
15913;SDS011;8055;51.930;8.840;2022-09-09T13:54:09;4.63;;;1.10;;
15913;SDS011;8055;51.930;8.840;2022-09-09T13:56:35;3.40;;;1.10;;
15913;SDS011;8055;51.930;8.840;2022-09-09T13:59:03;7.72;;;1.83;;
15913;SDS011;8055;51.930;8.840;2022-09-09T14:01:30;3.03;;;0.85;;
15913;SDS011;8055;51.930;8.840;2022-09-09T14:03:56;4.45;;;1.10;;
15913;SDS011;8055;51.930;8.840;2022-09-09T14:06:21;2.15;;;0.80;;
15913;SDS011;8055;51.930;8.840;2022-09-09T14:08:50;3.67;;;1.13;;
15913;SDS011;8055;51.930;8.840;2022-09-09T14:11:17;2.38;;;0.80;;
15913;SDS011;8055;51.930;8.840;2022-09-09T14:13:43;5.10;;;1.35;;
15913;SDS011;8055;51.930;8.840;2022-09-09T14:16:08;2.92;;;1.00;;
15913;SDS011;8055;51.930;8.840;2022-09-09T14:18:34;5.78;;;1.10;;
15913;SDS011;8055;51.930;8.840;2022-09-09T14:21:00;2.47;;;0.90;;
15913;SDS011;8055;51.930;8.840;2022-09-09T14:23:27;2.65;;;1.00;;
15913;SDS011;8055;51.930;8.840;2022-09-09T14:25:54;4.40;;;0.88;;
15913;SDS011;8055;51.930;8.840;2022-09-09T14:28:19;4.15;;;1.05;;
15913;SDS011;8055;51.930;8.840;2022-09-09T14:30:45;3.60;;;1.00;;
15913;SDS011;8055;51.930;8.840;2022-09-09T14:33:12;1.30;;;0.70;;
15913;SDS011;8055;51.930;8.840;2022-09-09T14:35:39;7.45;;;1.10;;
15913;SDS011;8055;51.930;8.840;2022-09-09T14:38:06;3.63;;;1.10;;
15913;SDS011;8055;51.930;8.840;2022-09-09T14:40:31;3.97;;;0.90;;
15913;SDS011;8055;51.930;8.840;2022-09-09T14:42:58;5.28;;;1.20;;
15913;SDS011;8055;51.930;8.840;2022-09-09T14:45:24;3.22;;;1.15;;
15913;SDS011;8055;51.930;8.840;2022-09-09T14:47:50;5.03;;;1.10;;
15913;SDS011;8055;51.930;8.840;2022-09-09T14:50:17;4.85;;;1.17;;
15913;SDS011;8055;51.930;8.840;2022-09-09T14:52:43;2.00;;;1.00;;
15913;SDS011;8055;51.930;8.840;2022-09-09T14:55:08;1.35;;;0.60;;
15913;SDS011;8055;51.930;8.840;2022-09-09T14:57:34;2.08;;;0.98;;
15913;SDS011;8055;51.930;8.840;2022-09-09T15:00:00;5.43;;;0.70;;
15913;SDS011;8055;51.930;8.840;2022-09-09T15:02:27;3.20;;;0.90;;
15913;SDS011;8055;51.930;8.840;2022-09-09T15:04:54;2.22;;;0.90;;
15913;SDS011;8055;51.930;8.840;2022-09-09T15:07:22;4.05;;;0.85;;
15913;SDS011;8055;51.930;8.840;2022-09-09T15:09:48;3.45;;;0.70;;
15913;SDS011;8055;51.930;8.840;2022-09-09T15:12:14;6.00;;;0.82;;
15913;SDS011;8055;51.930;8.840;2022-09-09T15:14:39;3.50;;;0.70;;
15913;SDS011;8055;51.930;8.840;2022-09-09T15:17:04;2.72;;;0.70;;
15913;SDS011;8055;51.930;8.840;2022-09-09T15:19:30;2.25;;;1.08;;
15913;SDS011;8055;51.930;8.840;2022-09-09T15:21:56;3.67;;;0.90;;
15913;SDS011;8055;51.930;8.840;2022-09-09T15:24:21;2.90;;;0.60;;
15913;SDS011;8055;51.930;8.840;2022-09-09T15:26:47;3.85;;;0.77;;
15913;SDS011;8055;51.930;8.840;2022-09-09T15:29:12;2.72;;;1.00;;
15913;SDS011;8055;51.930;8.840;2022-09-09T15:31:38;3.97;;;0.80;;
15913;SDS011;8055;51.930;8.840;2022-09-09T15:34:05;2.78;;;0.75;;
15913;SDS011;8055;51.930;8.840;2022-09-09T15:36:32;2.30;;;0.80;;
15913;SDS011;8055;51.930;8.840;2022-09-09T15:39:03;3.22;;;0.75;;
15913;SDS011;8055;51.930;8.840;2022-09-09T15:41:30;2.10;;;0.70;;
15913;SDS011;8055;51.930;8.840;2022-09-09T15:43:59;4.32;;;0.90;;
15913;SDS011;8055;51.930;8.840;2022-09-09T15:48:54;3.20;;;0.90;;
15913;SDS011;8055;51.930;8.840;2022-09-09T15:51:21;2.30;;;1.00;;
15913;SDS011;8055;51.930;8.840;2022-09-09T15:53:48;1.38;;;0.70;;
15913;SDS011;8055;51.930;8.840;2022-09-09T15:56:14;1.20;;;0.52;;
15913;SDS011;8055;51.930;8.840;2022-09-09T15:58:39;1.55;;;0.77;;
15913;SDS011;8055;51.930;8.840;2022-09-09T16:01:05;5.00;;;0.73;;
15913;SDS011;8055;51.930;8.840;2022-09-09T16:03:39;1.95;;;0.80;;
15913;SDS011;8055;51.930;8.840;2022-09-09T16:06:11;3.60;;;0.88;;
15913;SDS011;8055;51.930;8.840;2022-09-09T16:08:41;2.08;;;0.90;;
15913;SDS011;8055;51.930;8.840;2022-09-09T16:11:09;3.55;;;0.68;;
15913;SDS011;8055;51.930;8.840;2022-09-09T16:13:38;2.60;;;0.93;;
15913;SDS011;8055;51.930;8.840;2022-09-09T16:16:04;3.38;;;1.02;;
15913;SDS011;8055;51.930;8.840;2022-09-09T16:18:37;4.30;;;1.00;;
15913;SDS011;8055;51.930;8.840;2022-09-09T16:21:05;4.47;;;1.05;;
15913;SDS011;8055;51.930;8.840;2022-09-09T16:23:34;2.08;;;0.95;;
15913;SDS011;8055;51.930;8.840;2022-09-09T16:25:59;2.63;;;0.75;;
15913;SDS011;8055;51.930;8.840;2022-09-09T16:28:25;3.25;;;0.80;;
15913;SDS011;8055;51.930;8.840;2022-09-09T16:30:51;4.18;;;0.80;;
15913;SDS011;8055;51.930;8.840;2022-09-09T16:33:17;2.90;;;1.17;;
15913;SDS011;8055;51.930;8.840;2022-09-09T16:35:42;4.90;;;1.55;;
15913;SDS011;8055;51.930;8.840;2022-09-09T16:38:08;6.45;;;1.17;;
15913;SDS011;8055;51.930;8.840;2022-09-09T16:40:34;4.97;;;1.20;;
15913;SDS011;8055;51.930;8.840;2022-09-09T16:43:00;3.95;;;1.27;;
15913;SDS011;8055;51.930;8.840;2022-09-09T16:45:26;2.60;;;1.08;;
15913;SDS011;8055;51.930;8.840;2022-09-09T16:47:51;2.28;;;0.80;;
15913;SDS011;8055;51.930;8.840;2022-09-09T16:50:17;1.88;;;1.00;;
15913;SDS011;8055;51.930;8.840;2022-09-09T16:52:42;1.67;;;0.75;;
15913;SDS011;8055;51.930;8.840;2022-09-09T16:55:08;3.53;;;0.90;;
15913;SDS011;8055;51.930;8.840;2022-09-09T16:57:34;3.63;;;1.05;;
15913;SDS011;8055;51.930;8.840;2022-09-09T17:00:00;2.58;;;0.82;;
15913;SDS011;8055;51.930;8.840;2022-09-09T17:02:26;4.40;;;0.90;;
15913;SDS011;8055;51.930;8.840;2022-09-09T17:04:51;2.47;;;1.20;;
15913;SDS011;8055;51.930;8.840;2022-09-09T17:07:17;3.28;;;1.10;;
15913;SDS011;8055;51.930;8.840;2022-09-09T17:09:44;2.65;;;0.88;;
15913;SDS011;8055;51.930;8.840;2022-09-09T17:12:10;2.72;;;1.08;;
15913;SDS011;8055;51.930;8.840;2022-09-09T17:14:37;1.67;;;0.77;;
15913;SDS011;8055;51.930;8.840;2022-09-09T17:17:03;3.15;;;0.75;;
15913;SDS011;8055;51.930;8.840;2022-09-09T17:19:29;2.92;;;0.90;;
15913;SDS011;8055;51.930;8.840;2022-09-09T17:21:55;2.22;;;0.70;;
15913;SDS011;8055;51.930;8.840;2022-09-09T17:24:22;1.95;;;0.65;;
15913;SDS011;8055;51.930;8.840;2022-09-09T17:26:48;2.72;;;0.75;;
15913;SDS011;8055;51.930;8.840;2022-09-09T17:29:13;3.30;;;0.73;;
15913;SDS011;8055;51.930;8.840;2022-09-09T17:31:38;1.13;;;0.70;;
15913;SDS011;8055;51.930;8.840;2022-09-09T17:34:05;4.07;;;0.90;;
15913;SDS011;8055;51.930;8.840;2022-09-09T17:36:33;2.22;;;0.90;;
15913;SDS011;8055;51.930;8.840;2022-09-09T17:38:59;2.25;;;0.73;;
15913;SDS011;8055;51.930;8.840;2022-09-09T17:41:29;2.35;;;0.65;;
15913;SDS011;8055;51.930;8.840;2022-09-09T17:43:57;2.35;;;0.90;;
15913;SDS011;8055;51.930;8.840;2022-09-09T17:46:30;1.80;;;1.05;;
15913;SDS011;8055;51.930;8.840;2022-09-09T17:49:00;3.00;;;1.00;;
15913;SDS011;8055;51.930;8.840;2022-09-09T17:51:29;3.65;;;0.90;;
15913;SDS011;8055;51.930;8.840;2022-09-09T17:53:58;2.90;;;0.82;;